sensor_id;sensor_type;location;lat;lon;timestamp;P1;durP1;ratioP1;P2;durP2;ratioP2
21438;SDS011;10880;50.302;18.736;2022-09-09T00:03:57;1.30;;;1.30;;
21438;SDS011;10880;50.302;18.736;2022-09-09T00:13:02;1.83;;;1.50;;
21438;SDS011;10880;50.302;18.736;2022-09-09T00:15:59;1.70;;;1.60;;
21438;SDS011;10880;50.302;18.736;2022-09-09T00:21:39;1.53;;;1.47;;
21438;SDS011;10880;50.302;18.736;2022-09-09T00:24:37;1.57;;;1.47;;
21438;SDS011;10880;50.302;18.736;2022-09-09T00:27:08;1.47;;;1.37;;
21438;SDS011;10880;50.302;18.736;2022-09-09T00:32:22;1.50;;;1.40;;
21438;SDS011;10880;50.302;18.736;2022-09-09T00:34:55;1.70;;;1.60;;
21438;SDS011;10880;50.302;18.736;2022-09-09T00:37:30;1.50;;;1.40;;
21438;SDS011;10880;50.302;18.736;2022-09-09T00:40:01;1.93;;;1.73;;
21438;SDS011;10880;50.302;18.736;2022-09-09T00:42:36;1.50;;;1.40;;
21438;SDS011;10880;50.302;18.736;2022-09-09T00:48:11;1.57;;;1.47;;
21438;SDS011;10880;50.302;18.736;2022-09-09T00:50:53;1.60;;;1.50;;
21438;SDS011;10880;50.302;18.736;2022-09-09T00:56:00;1.57;;;1.47;;
21438;SDS011;10880;50.302;18.736;2022-09-09T00:58:37;1.70;;;1.60;;
21438;SDS011;10880;50.302;18.736;2022-09-09T01:01:04;1.83;;;1.70;;
21438;SDS011;10880;50.302;18.736;2022-09-09T01:06:33;1.90;;;1.80;;
21438;SDS011;10880;50.302;18.736;2022-09-09T01:14:42;1.63;;;1.53;;
21438;SDS011;10880;50.302;18.736;2022-09-09T01:17:19;1.60;;;1.50;;
21438;SDS011;10880;50.302;18.736;2022-09-09T01:20:03;1.83;;;1.73;;
21438;SDS011;10880;50.302;18.736;2022-09-09T01:28:42;1.87;;;1.70;;
21438;SDS011;10880;50.302;18.736;2022-09-09T01:31:15;1.87;;;1.77;;
21438;SDS011;10880;50.302;18.736;2022-09-09T01:33:47;2.00;;;1.90;;
21438;SDS011;10880;50.302;18.736;2022-09-09T01:38:58;1.80;;;1.70;;
21438;SDS011;10880;50.302;18.736;2022-09-09T01:41:25;2.20;;;2.00;;
21438;SDS011;10880;50.302;18.736;2022-09-09T01:44:08;2.27;;;1.80;;
21438;SDS011;10880;50.302;18.736;2022-09-09T01:46:37;1.80;;;1.70;;
21438;SDS011;10880;50.302;18.736;2022-09-09T01:49:07;1.93;;;1.63;;
21438;SDS011;10880;50.302;18.736;2022-09-09T01:51:34;1.73;;;1.63;;
21438;SDS011;10880;50.302;18.736;2022-09-09T01:54:05;1.60;;;1.50;;
21438;SDS011;10880;50.302;18.736;2022-09-09T01:56:39;2.03;;;1.93;;
21438;SDS011;10880;50.302;18.736;2022-09-09T01:59:41;1.73;;;1.63;;
21438;SDS011;10880;50.302;18.736;2022-09-09T02:05:37;1.60;;;1.50;;
21438;SDS011;10880;50.302;18.736;2022-09-09T02:08:26;1.80;;;1.70;;
21438;SDS011;10880;50.302;18.736;2022-09-09T02:13:57;1.80;;;1.70;;
21438;SDS011;10880;50.302;18.736;2022-09-09T02:16:37;1.80;;;1.70;;
21438;SDS011;10880;50.302;18.736;2022-09-09T02:19:12;1.77;;;1.67;;
21438;SDS011;10880;50.302;18.736;2022-09-09T02:22:06;1.80;;;1.70;;
21438;SDS011;10880;50.302;18.736;2022-09-09T02:24:34;1.87;;;1.77;;
21438;SDS011;10880;50.302;18.736;2022-09-09T02:27:16;1.77;;;1.67;;
21438;SDS011;10880;50.302;18.736;2022-09-09T02:29:44;1.70;;;1.60;;
21438;SDS011;10880;50.302;18.736;2022-09-09T02:32:14;2.20;;;2.00;;
21438;SDS011;10880;50.302;18.736;2022-09-09T02:34:44;1.60;;;1.50;;
21438;SDS011;10880;50.302;18.736;2022-09-09T02:37:13;1.47;;;1.37;;
21438;SDS011;10880;50.302;18.736;2022-09-09T02:39:47;1.60;;;1.50;;
21438;SDS011;10880;50.302;18.736;2022-09-09T02:42:17;1.50;;;1.40;;
21438;SDS011;10880;50.302;18.736;2022-09-09T02:44:43;1.33;;;1.33;;
21438;SDS011;10880;50.302;18.736;2022-09-09T02:57:51;1.63;;;1.53;;
21438;SDS011;10880;50.302;18.736;2022-09-09T03:00:23;1.87;;;1.50;;
21438;SDS011;10880;50.302;18.736;2022-09-09T03:02:51;1.80;;;1.70;;
21438;SDS011;10880;50.302;18.736;2022-09-09T03:05:19;1.50;;;1.40;;
21438;SDS011;10880;50.302;18.736;2022-09-09T03:07:46;1.80;;;1.70;;
21438;SDS011;10880;50.302;18.736;2022-09-09T03:10:17;1.30;;;1.30;;
21438;SDS011;10880;50.302;18.736;2022-09-09T03:12:44;1.40;;;1.40;;
21438;SDS011;10880;50.302;18.736;2022-09-09T03:15:11;1.50;;;1.40;;
21438;SDS011;10880;50.302;18.736;2022-09-09T03:17:38;1.53;;;1.43;;
21438;SDS011;10880;50.302;18.736;2022-09-09T03:20:05;1.50;;;1.40;;
21438;SDS011;10880;50.302;18.736;2022-09-09T03:22:33;1.47;;;1.37;;
21438;SDS011;10880;50.302;18.736;2022-09-09T03:25:00;1.50;;;1.40;;
21438;SDS011;10880;50.302;18.736;2022-09-09T03:27:29;1.30;;;1.30;;
21438;SDS011;10880;50.302;18.736;2022-09-09T03:29:56;1.40;;;1.30;;
21438;SDS011;10880;50.302;18.736;2022-09-09T03:32:24;1.30;;;1.30;;
21438;SDS011;10880;50.302;18.736;2022-09-09T03:34:56;1.70;;;1.60;;
21438;SDS011;10880;50.302;18.736;2022-09-09T03:37:22;1.80;;;1.70;;
21438;SDS011;10880;50.302;18.736;2022-09-09T03:39:50;2.00;;;1.60;;
21438;SDS011;10880;50.302;18.736;2022-09-09T03:42:17;1.70;;;1.60;;
21438;SDS011;10880;50.302;18.736;2022-09-09T03:44:45;1.57;;;1.47;;
21438;SDS011;10880;50.302;18.736;2022-09-09T03:47:16;1.30;;;1.30;;
21438;SDS011;10880;50.302;18.736;2022-09-09T03:49:44;1.40;;;1.33;;
21438;SDS011;10880;50.302;18.736;2022-09-09T03:52:11;1.40;;;1.30;;
21438;SDS011;10880;50.302;18.736;2022-09-09T03:54:37;1.33;;;1.33;;
21438;SDS011;10880;50.302;18.736;2022-09-09T03:57:05;1.47;;;1.37;;
21438;SDS011;10880;50.302;18.736;2022-09-09T03:59:31;1.50;;;1.40;;
21438;SDS011;10880;50.302;18.736;2022-09-09T04:01:58;1.30;;;1.30;;
21438;SDS011;10880;50.302;18.736;2022-09-09T04:04:25;1.47;;;1.37;;
21438;SDS011;10880;50.302;18.736;2022-09-09T04:06:54;1.57;;;1.47;;
21438;SDS011;10880;50.302;18.736;2022-09-09T04:09:21;1.83;;;1.40;;
21438;SDS011;10880;50.302;18.736;2022-09-09T04:11:48;1.40;;;1.30;;
21438;SDS011;10880;50.302;18.736;2022-09-09T04:14:15;1.40;;;1.27;;
21438;SDS011;10880;50.302;18.736;2022-09-09T04:16:42;1.30;;;1.30;;
21438;SDS011;10880;50.302;18.736;2022-09-09T04:19:11;1.23;;;1.20;;
21438;SDS011;10880;50.302;18.736;2022-09-09T04:21:41;1.60;;;1.50;;
21438;SDS011;10880;50.302;18.736;2022-09-09T04:24:08;1.37;;;1.30;;
21438;SDS011;10880;50.302;18.736;2022-09-09T04:26:34;1.20;;;1.20;;
21438;SDS011;10880;50.302;18.736;2022-09-09T04:29:03;1.40;;;1.30;;
21438;SDS011;10880;50.302;18.736;2022-09-09T04:31:30;1.70;;;1.60;;
21438;SDS011;10880;50.302;18.736;2022-09-09T04:33:56;1.50;;;1.40;;
21438;SDS011;10880;50.302;18.736;2022-09-09T04:36:23;1.47;;;1.37;;
21438;SDS011;10880;50.302;18.736;2022-09-09T04:38:54;1.57;;;1.47;;
21438;SDS011;10880;50.302;18.736;2022-09-09T04:41:20;1.20;;;1.20;;
21438;SDS011;10880;50.302;18.736;2022-09-09T04:43:49;1.30;;;1.20;;
21438;SDS011;10880;50.302;18.736;2022-09-09T04:46:17;1.60;;;1.50;;
21438;SDS011;10880;50.302;18.736;2022-09-09T04:48:44;1.30;;;1.30;;
21438;SDS011;10880;50.302;18.736;2022-09-09T04:51:13;1.40;;;1.30;;
21438;SDS011;10880;50.302;18.736;2022-09-09T04:53:40;1.20;;;1.20;;
21438;SDS011;10880;50.302;18.736;2022-09-09T04:56:11;1.30;;;1.30;;
21438;SDS011;10880;50.302;18.736;2022-09-09T04:58:51;1.50;;;1.40;;
21438;SDS011;10880;50.302;18.736;2022-09-09T05:01:21;1.30;;;1.20;;
21438;SDS011;10880;50.302;18.736;2022-09-09T05:03:50;1.37;;;1.37;;
21438;SDS011;10880;50.302;18.736;2022-09-09T05:06:21;1.20;;;1.20;;
21438;SDS011;10880;50.302;18.736;2022-09-09T05:08:53;1.33;;;1.30;;
21438;SDS011;10880;50.302;18.736;2022-09-09T05:11:27;1.30;;;1.30;;
21438;SDS011;10880;50.302;18.736;2022-09-09T05:14:22;1.40;;;1.30;;
21438;SDS011;10880;50.302;18.736;2022-09-09T05:16:48;1.20;;;1.20;;
21438;SDS011;10880;50.302;18.736;2022-09-09T05:19:15;1.27;;;1.27;;
21438;SDS011;10880;50.302;18.736;2022-09-09T05:21:47;1.40;;;1.37;;
21438;SDS011;10880;50.302;18.736;2022-09-09T05:24:17;1.70;;;1.60;;
21438;SDS011;10880;50.302;18.736;2022-09-09T05:26:45;1.50;;;1.40;;
21438;SDS011;10880;50.302;18.736;2022-09-09T05:29:11;1.57;;;1.47;;
21438;SDS011;10880;50.302;18.736;2022-09-09T05:31:38;1.60;;;1.50;;
21438;SDS011;10880;50.302;18.736;2022-09-09T05:34:09;1.60;;;1.50;;
21438;SDS011;10880;50.302;18.736;2022-09-09T05:36:36;1.60;;;1.50;;
21438;SDS011;10880;50.302;18.736;2022-09-09T05:39:02;1.90;;;1.80;;
21438;SDS011;10880;50.302;18.736;2022-09-09T05:41:31;1.80;;;1.70;;
21438;SDS011;10880;50.302;18.736;2022-09-09T05:44:01;2.50;;;1.87;;
21438;SDS011;10880;50.302;18.736;2022-09-09T05:46:27;2.37;;;2.17;;
21438;SDS011;10880;50.302;18.736;2022-09-09T05:48:55;2.40;;;2.20;;
21438;SDS011;10880;50.302;18.736;2022-09-09T05:51:27;2.40;;;2.20;;
21438;SDS011;10880;50.302;18.736;2022-09-09T05:54:01;2.60;;;2.40;;
21438;SDS011;10880;50.302;18.736;2022-09-09T05:56:31;4.73;;;2.50;;
21438;SDS011;10880;50.302;18.736;2022-09-09T05:58:59;2.57;;;2.37;;
21438;SDS011;10880;50.302;18.736;2022-09-09T06:01:30;4.53;;;2.23;;
21438;SDS011;10880;50.302;18.736;2022-09-09T06:03:59;2.57;;;2.37;;
21438;SDS011;10880;50.302;18.736;2022-09-09T06:06:29;3.07;;;2.50;;
21438;SDS011;10880;50.302;18.736;2022-09-09T06:08:59;2.43;;;2.23;;
21438;SDS011;10880;50.302;18.736;2022-09-09T06:11:30;2.13;;;2.03;;
21438;SDS011;10880;50.302;18.736;2022-09-09T06:13:58;2.67;;;2.47;;
21438;SDS011;10880;50.302;18.736;2022-09-09T06:16:27;2.60;;;2.30;;
21438;SDS011;10880;50.302;18.736;2022-09-09T06:18:55;2.10;;;1.90;;
21438;SDS011;10880;50.302;18.736;2022-09-09T06:21:24;2.40;;;2.20;;
21438;SDS011;10880;50.302;18.736;2022-09-09T06:24:00;2.13;;;1.93;;
21438;SDS011;10880;50.302;18.736;2022-09-09T06:26:31;2.67;;;2.47;;
21438;SDS011;10880;50.302;18.736;2022-09-09T06:29:03;3.07;;;2.53;;
21438;SDS011;10880;50.302;18.736;2022-09-09T06:31:31;2.40;;;2.20;;
21438;SDS011;10880;50.302;18.736;2022-09-09T06:34:06;2.07;;;1.90;;
21438;SDS011;10880;50.302;18.736;2022-09-09T06:36:36;2.57;;;2.33;;
21438;SDS011;10880;50.302;18.736;2022-09-09T06:39:07;2.50;;;2.30;;
21438;SDS011;10880;50.302;18.736;2022-09-09T06:41:36;2.27;;;2.07;;
21438;SDS011;10880;50.302;18.736;2022-09-09T06:44:06;3.50;;;2.40;;
21438;SDS011;10880;50.302;18.736;2022-09-09T06:46:39;3.47;;;2.23;;
21438;SDS011;10880;50.302;18.736;2022-09-09T06:49:08;2.27;;;2.10;;
21438;SDS011;10880;50.302;18.736;2022-09-09T06:51:35;2.13;;;1.93;;
21438;SDS011;10880;50.302;18.736;2022-09-09T06:54:08;2.03;;;1.93;;
21438;SDS011;10880;50.302;18.736;2022-09-09T06:56:37;2.50;;;2.30;;
21438;SDS011;10880;50.302;18.736;2022-09-09T06:59:14;2.20;;;2.00;;
21438;SDS011;10880;50.302;18.736;2022-09-09T07:01:42;2.20;;;2.00;;
21438;SDS011;10880;50.302;18.736;2022-09-09T07:04:13;1.70;;;1.60;;
21438;SDS011;10880;50.302;18.736;2022-09-09T07:06:46;1.87;;;1.77;;
21438;SDS011;10880;50.302;18.736;2022-09-09T07:09:21;2.00;;;1.90;;
21438;SDS011;10880;50.302;18.736;2022-09-09T07:11:50;2.33;;;2.13;;
21438;SDS011;10880;50.302;18.736;2022-09-09T07:14:22;2.10;;;1.90;;
21438;SDS011;10880;50.302;18.736;2022-09-09T07:16:55;2.90;;;2.70;;
21438;SDS011;10880;50.302;18.736;2022-09-09T07:19:22;2.40;;;2.10;;
21438;SDS011;10880;50.302;18.736;2022-09-09T07:21:53;1.87;;;1.77;;
21438;SDS011;10880;50.302;18.736;2022-09-09T07:24:23;1.90;;;1.80;;
21438;SDS011;10880;50.302;18.736;2022-09-09T07:26:50;2.00;;;1.80;;
21438;SDS011;10880;50.302;18.736;2022-09-09T07:29:17;1.70;;;1.60;;
21438;SDS011;10880;50.302;18.736;2022-09-09T07:31:47;2.17;;;1.97;;
21438;SDS011;10880;50.302;18.736;2022-09-09T07:34:18;2.30;;;2.10;;
21438;SDS011;10880;50.302;18.736;2022-09-09T07:36:52;2.30;;;1.70;;
21438;SDS011;10880;50.302;18.736;2022-09-09T07:39:19;1.77;;;1.63;;
21438;SDS011;10880;50.302;18.736;2022-09-09T07:41:49;1.70;;;1.60;;
21438;SDS011;10880;50.302;18.736;2022-09-09T07:44:21;1.60;;;1.50;;
21438;SDS011;10880;50.302;18.736;2022-09-09T07:46:57;1.50;;;1.40;;
21438;SDS011;10880;50.302;18.736;2022-09-09T07:49:30;1.60;;;1.50;;
21438;SDS011;10880;50.302;18.736;2022-09-09T07:51:58;2.40;;;2.20;;
21438;SDS011;10880;50.302;18.736;2022-09-09T07:54:24;1.90;;;1.80;;
21438;SDS011;10880;50.302;18.736;2022-09-09T07:56:52;4.67;;;1.97;;
21438;SDS011;10880;50.302;18.736;2022-09-09T07:59:21;2.80;;;2.10;;
21438;SDS011;10880;50.302;18.736;2022-09-09T08:01:51;1.60;;;1.50;;
21438;SDS011;10880;50.302;18.736;2022-09-09T08:04:24;1.50;;;1.40;;
21438;SDS011;10880;50.302;18.736;2022-09-09T08:06:53;1.60;;;1.50;;
21438;SDS011;10880;50.302;18.736;2022-09-09T08:09:22;1.40;;;1.30;;
21438;SDS011;10880;50.302;18.736;2022-09-09T08:11:59;1.40;;;1.30;;
21438;SDS011;10880;50.302;18.736;2022-09-09T08:14:29;1.40;;;1.30;;
21438;SDS011;10880;50.302;18.736;2022-09-09T08:16:56;1.20;;;1.20;;
21438;SDS011;10880;50.302;18.736;2022-09-09T08:19:27;1.50;;;1.40;;
21438;SDS011;10880;50.302;18.736;2022-09-09T08:21:55;1.47;;;1.37;;
21438;SDS011;10880;50.302;18.736;2022-09-09T08:24:22;1.20;;;1.20;;
21438;SDS011;10880;50.302;18.736;2022-09-09T08:26:49;1.20;;;1.20;;
21438;SDS011;10880;50.302;18.736;2022-09-09T08:29:19;1.20;;;1.20;;
21438;SDS011;10880;50.302;18.736;2022-09-09T08:31:48;1.10;;;1.10;;
21438;SDS011;10880;50.302;18.736;2022-09-09T08:37:24;1.43;;;1.33;;
21438;SDS011;10880;50.302;18.736;2022-09-09T08:39:58;1.27;;;1.27;;
21438;SDS011;10880;50.302;18.736;2022-09-09T08:48:12;1.00;;;1.00;;
21438;SDS011;10880;50.302;18.736;2022-09-09T08:50:51;1.20;;;1.20;;
21438;SDS011;10880;50.302;18.736;2022-09-09T08:53:23;1.30;;;1.20;;
21438;SDS011;10880;50.302;18.736;2022-09-09T08:55:56;1.10;;;1.10;;
21438;SDS011;10880;50.302;18.736;2022-09-09T08:58:51;1.50;;;1.40;;
21438;SDS011;10880;50.302;18.736;2022-09-09T09:01:35;1.50;;;1.40;;
21438;SDS011;10880;50.302;18.736;2022-09-09T09:10:37;1.50;;;1.40;;
21438;SDS011;10880;50.302;18.736;2022-09-09T09:19:05;1.13;;;1.13;;
21438;SDS011;10880;50.302;18.736;2022-09-09T09:21:59;1.20;;;1.20;;
21438;SDS011;10880;50.302;18.736;2022-09-09T09:27:46;1.53;;;1.30;;
21438;SDS011;10880;50.302;18.736;2022-09-09T09:30:25;1.60;;;1.50;;
21438;SDS011;10880;50.302;18.736;2022-09-09T09:33:06;1.30;;;1.20;;
21438;SDS011;10880;50.302;18.736;2022-09-09T09:35:42;1.13;;;1.10;;
21438;SDS011;10880;50.302;18.736;2022-09-09T09:38:16;1.20;;;1.20;;
21438;SDS011;10880;50.302;18.736;2022-09-09T09:40:54;1.80;;;1.70;;
21438;SDS011;10880;50.302;18.736;2022-09-09T09:43:36;1.30;;;1.20;;
21438;SDS011;10880;50.302;18.736;2022-09-09T09:46:19;1.17;;;1.17;;
21438;SDS011;10880;50.302;18.736;2022-09-09T09:48:59;1.00;;;1.00;;
21438;SDS011;10880;50.302;18.736;2022-09-09T09:51:32;1.10;;;1.10;;
21438;SDS011;10880;50.302;18.736;2022-09-09T09:54:14;1.30;;;1.20;;
21438;SDS011;10880;50.302;18.736;2022-09-09T09:57:11;1.10;;;1.10;;
21438;SDS011;10880;50.302;18.736;2022-09-09T09:59:45;1.03;;;1.03;;
21438;SDS011;10880;50.302;18.736;2022-09-09T10:02:20;1.10;;;1.10;;
21438;SDS011;10880;50.302;18.736;2022-09-09T10:05:05;1.03;;;1.03;;
21438;SDS011;10880;50.302;18.736;2022-09-09T10:08:04;1.20;;;1.20;;
21438;SDS011;10880;50.302;18.736;2022-09-09T10:10:39;1.00;;;1.00;;
21438;SDS011;10880;50.302;18.736;2022-09-09T10:13:49;1.27;;;1.20;;
21438;SDS011;10880;50.302;18.736;2022-09-09T10:19:15;1.53;;;1.30;;
21438;SDS011;10880;50.302;18.736;2022-09-09T10:21:56;1.10;;;1.10;;
21438;SDS011;10880;50.302;18.736;2022-09-09T10:30:41;1.23;;;1.13;;
21438;SDS011;10880;50.302;18.736;2022-09-09T10:33:28;1.60;;;1.50;;
21438;SDS011;10880;50.302;18.736;2022-09-09T10:38:46;1.50;;;1.40;;
21438;SDS011;10880;50.302;18.736;2022-09-09T10:41:29;1.73;;;1.30;;
21438;SDS011;10880;50.302;18.736;2022-09-09T10:44:52;1.20;;;1.20;;
21438;SDS011;10880;50.302;18.736;2022-09-09T10:55:35;1.03;;;0.90;;
21438;SDS011;10880;50.302;18.736;2022-09-09T10:58:16;0.93;;;0.93;;
21438;SDS011;10880;50.302;18.736;2022-09-09T11:00:55;0.97;;;0.97;;
21438;SDS011;10880;50.302;18.736;2022-09-09T11:03:31;1.30;;;1.20;;
21438;SDS011;10880;50.302;18.736;2022-09-09T11:06:00;1.00;;;1.00;;
21438;SDS011;10880;50.302;18.736;2022-09-09T11:08:37;1.10;;;1.10;;
21438;SDS011;10880;50.302;18.736;2022-09-09T11:11:10;1.50;;;1.13;;
21438;SDS011;10880;50.302;18.736;2022-09-09T11:22:01;1.20;;;1.10;;
21438;SDS011;10880;50.302;18.736;2022-09-09T11:28:05;1.13;;;1.00;;
21438;SDS011;10880;50.302;18.736;2022-09-09T11:30:16;0.90;;;0.90;;
21438;SDS011;10880;50.302;18.736;2022-09-09T11:39:18;1.00;;;1.00;;
21438;SDS011;10880;50.302;18.736;2022-09-09T11:44:43;1.20;;;1.10;;
21438;SDS011;10880;50.302;18.736;2022-09-09T11:47:50;1.10;;;1.00;;
21438;SDS011;10880;50.302;18.736;2022-09-09T11:52:42;0.90;;;0.90;;
21438;SDS011;10880;50.302;18.736;2022-09-09T11:55:27;0.90;;;0.90;;
21438;SDS011;10880;50.302;18.736;2022-09-09T11:58:17;1.00;;;1.00;;
21438;SDS011;10880;50.302;18.736;2022-09-09T12:00:48;1.00;;;1.00;;
21438;SDS011;10880;50.302;18.736;2022-09-09T12:06:09;1.10;;;1.10;;
21438;SDS011;10880;50.302;18.736;2022-09-09T12:08:40;0.90;;;0.90;;
21438;SDS011;10880;50.302;18.736;2022-09-09T12:11:11;0.90;;;0.90;;
21438;SDS011;10880;50.302;18.736;2022-09-09T12:13:37;0.90;;;0.90;;
21438;SDS011;10880;50.302;18.736;2022-09-09T12:16:04;0.80;;;0.80;;
21438;SDS011;10880;50.302;18.736;2022-09-09T12:18:32;0.90;;;0.90;;
21438;SDS011;10880;50.302;18.736;2022-09-09T12:24:09;0.90;;;0.90;;
21438;SDS011;10880;50.302;18.736;2022-09-09T12:26:43;0.77;;;0.77;;
21438;SDS011;10880;50.302;18.736;2022-09-09T12:32:28;0.80;;;0.80;;
21438;SDS011;10880;50.302;18.736;2022-09-09T12:34:59;0.80;;;0.80;;
21438;SDS011;10880;50.302;18.736;2022-09-09T12:37:34;0.80;;;0.80;;
21438;SDS011;10880;50.302;18.736;2022-09-09T12:40:19;0.80;;;0.80;;
21438;SDS011;10880;50.302;18.736;2022-09-09T12:42:50;0.80;;;0.80;;
21438;SDS011;10880;50.302;18.736;2022-09-09T12:45:20;0.90;;;0.90;;
21438;SDS011;10880;50.302;18.736;2022-09-09T12:47:51;0.80;;;0.80;;
21438;SDS011;10880;50.302;18.736;2022-09-09T12:50:50;0.80;;;0.80;;
21438;SDS011;10880;50.302;18.736;2022-09-09T12:56:05;0.90;;;0.90;;
21438;SDS011;10880;50.302;18.736;2022-09-09T12:58:35;0.90;;;0.90;;
21438;SDS011;10880;50.302;18.736;2022-09-09T13:01:04;0.80;;;0.80;;
21438;SDS011;10880;50.302;18.736;2022-09-09T13:03:32;0.87;;;0.87;;
21438;SDS011;10880;50.302;18.736;2022-09-09T13:06:12;0.80;;;0.80;;
21438;SDS011;10880;50.302;18.736;2022-09-09T13:08:44;0.90;;;0.90;;
21438;SDS011;10880;50.302;18.736;2022-09-09T13:11:12;0.90;;;0.90;;
21438;SDS011;10880;50.302;18.736;2022-09-09T13:13:43;1.00;;;0.90;;
21438;SDS011;10880;50.302;18.736;2022-09-09T13:16:27;4.30;;;1.20;;
21438;SDS011;10880;50.302;18.736;2022-09-09T13:19:00;0.80;;;0.80;;
21438;SDS011;10880;50.302;18.736;2022-09-09T13:21:33;0.80;;;0.80;;
21438;SDS011;10880;50.302;18.736;2022-09-09T13:24:00;0.80;;;0.80;;
21438;SDS011;10880;50.302;18.736;2022-09-09T13:26:29;0.70;;;0.70;;
21438;SDS011;10880;50.302;18.736;2022-09-09T13:29:07;0.83;;;0.83;;
21438;SDS011;10880;50.302;18.736;2022-09-09T13:31:44;0.90;;;0.90;;
21438;SDS011;10880;50.302;18.736;2022-09-09T13:34:25;0.80;;;0.80;;
21438;SDS011;10880;50.302;18.736;2022-09-09T13:36:55;0.90;;;0.90;;
21438;SDS011;10880;50.302;18.736;2022-09-09T13:39:27;0.80;;;0.80;;
21438;SDS011;10880;50.302;18.736;2022-09-09T13:41:54;0.87;;;0.87;;
21438;SDS011;10880;50.302;18.736;2022-09-09T13:49:47;0.80;;;0.80;;
21438;SDS011;10880;50.302;18.736;2022-09-09T13:52:17;0.83;;;0.83;;
21438;SDS011;10880;50.302;18.736;2022-09-09T13:54:48;0.80;;;0.80;;
21438;SDS011;10880;50.302;18.736;2022-09-09T13:57:16;0.90;;;0.90;;
21438;SDS011;10880;50.302;18.736;2022-09-09T13:59:52;1.00;;;1.00;;
21438;SDS011;10880;50.302;18.736;2022-09-09T14:02:20;0.80;;;0.80;;
21438;SDS011;10880;50.302;18.736;2022-09-09T14:04:49;0.93;;;0.93;;
21438;SDS011;10880;50.302;18.736;2022-09-09T14:07:20;0.90;;;0.90;;
21438;SDS011;10880;50.302;18.736;2022-09-09T14:09:51;0.80;;;0.80;;
21438;SDS011;10880;50.302;18.736;2022-09-09T14:12:18;0.90;;;0.90;;
21438;SDS011;10880;50.302;18.736;2022-09-09T14:14:45;0.83;;;0.83;;
21438;SDS011;10880;50.302;18.736;2022-09-09T14:17:12;0.80;;;0.80;;
21438;SDS011;10880;50.302;18.736;2022-09-09T14:19:39;0.90;;;0.90;;
21438;SDS011;10880;50.302;18.736;2022-09-09T14:22:05;0.80;;;0.80;;
21438;SDS011;10880;50.302;18.736;2022-09-09T14:24:32;0.80;;;0.80;;
21438;SDS011;10880;50.302;18.736;2022-09-09T14:26:59;0.80;;;0.80;;
21438;SDS011;10880;50.302;18.736;2022-09-09T14:29:26;0.80;;;0.80;;
21438;SDS011;10880;50.302;18.736;2022-09-09T14:31:54;0.90;;;0.90;;
21438;SDS011;10880;50.302;18.736;2022-09-09T14:34:21;0.90;;;0.90;;
21438;SDS011;10880;50.302;18.736;2022-09-09T14:36:47;0.83;;;0.83;;
21438;SDS011;10880;50.302;18.736;2022-09-09T14:39:14;0.83;;;0.83;;
21438;SDS011;10880;50.302;18.736;2022-09-09T14:41:43;0.90;;;0.90;;
21438;SDS011;10880;50.302;18.736;2022-09-09T14:44:11;0.93;;;0.90;;
21438;SDS011;10880;50.302;18.736;2022-09-09T14:46:37;0.83;;;0.83;;
21438;SDS011;10880;50.302;18.736;2022-09-09T14:49:04;0.90;;;0.90;;
21438;SDS011;10880;50.302;18.736;2022-09-09T14:51:30;0.80;;;0.80;;
21438;SDS011;10880;50.302;18.736;2022-09-09T14:53:57;0.80;;;0.80;;
21438;SDS011;10880;50.302;18.736;2022-09-09T14:56:28;1.30;;;0.73;;
21438;SDS011;10880;50.302;18.736;2022-09-09T14:58:57;0.87;;;0.87;;
21438;SDS011;10880;50.302;18.736;2022-09-09T15:01:26;0.80;;;0.80;;
21438;SDS011;10880;50.302;18.736;2022-09-09T15:03:59;1.00;;;1.00;;
21438;SDS011;10880;50.302;18.736;2022-09-09T15:06:33;0.90;;;0.90;;
21438;SDS011;10880;50.302;18.736;2022-09-09T15:09:06;0.90;;;0.90;;
21438;SDS011;10880;50.302;18.736;2022-09-09T15:11:34;0.90;;;0.90;;
21438;SDS011;10880;50.302;18.736;2022-09-09T15:14:06;0.90;;;0.90;;
21438;SDS011;10880;50.302;18.736;2022-09-09T15:16:34;0.90;;;0.90;;
21438;SDS011;10880;50.302;18.736;2022-09-09T15:19:03;0.80;;;0.80;;
21438;SDS011;10880;50.302;18.736;2022-09-09T15:21:31;0.90;;;0.90;;
21438;SDS011;10880;50.302;18.736;2022-09-09T15:24:01;0.90;;;0.90;;
21438;SDS011;10880;50.302;18.736;2022-09-09T15:26:28;0.80;;;0.80;;
21438;SDS011;10880;50.302;18.736;2022-09-09T15:28:56;0.83;;;0.83;;
21438;SDS011;10880;50.302;18.736;2022-09-09T15:31:28;0.80;;;0.80;;
21438;SDS011;10880;50.302;18.736;2022-09-09T15:33:59;0.90;;;0.90;;
21438;SDS011;10880;50.302;18.736;2022-09-09T15:36:29;0.90;;;0.90;;
21438;SDS011;10880;50.302;18.736;2022-09-09T15:39:09;1.10;;;0.90;;
21438;SDS011;10880;50.302;18.736;2022-09-09T15:41:39;1.03;;;0.90;;
21438;SDS011;10880;50.302;18.736;2022-09-09T15:44:06;1.30;;;1.00;;
21438;SDS011;10880;50.302;18.736;2022-09-09T15:46:33;1.00;;;1.00;;
21438;SDS011;10880;50.302;18.736;2022-09-09T15:51:32;0.87;;;0.87;;
21438;SDS011;10880;50.302;18.736;2022-09-09T15:53:58;0.90;;;0.90;;
21438;SDS011;10880;50.302;18.736;2022-09-09T15:56:26;1.00;;;1.00;;
21438;SDS011;10880;50.302;18.736;2022-09-09T15:58:57;1.23;;;1.00;;
21438;SDS011;10880;50.302;18.736;2022-09-09T16:01:26;0.97;;;0.97;;
21438;SDS011;10880;50.302;18.736;2022-09-09T16:03:52;0.90;;;0.90;;
21438;SDS011;10880;50.302;18.736;2022-09-09T16:06:21;0.97;;;0.90;;
21438;SDS011;10880;50.302;18.736;2022-09-09T16:08:50;0.87;;;0.87;;
21438;SDS011;10880;50.302;18.736;2022-09-09T16:11:31;0.93;;;0.93;;
21438;SDS011;10880;50.302;18.736;2022-09-09T16:13:59;1.00;;;0.90;;
21438;SDS011;10880;50.302;18.736;2022-09-09T16:16:27;1.57;;;0.90;;
21438;SDS011;10880;50.302;18.736;2022-09-09T16:18:56;0.90;;;0.90;;
21438;SDS011;10880;50.302;18.736;2022-09-09T16:24:04;1.37;;;1.00;;
21438;SDS011;10880;50.302;18.736;2022-09-09T16:26:32;2.23;;;1.17;;
21438;SDS011;10880;50.302;18.736;2022-09-09T16:29:00;1.00;;;1.00;;
21438;SDS011;10880;50.302;18.736;2022-09-09T16:31:28;1.90;;;1.00;;
21438;SDS011;10880;50.302;18.736;2022-09-09T16:33:55;1.10;;;1.10;;
21438;SDS011;10880;50.302;18.736;2022-09-09T16:36:25;1.00;;;1.00;;
21438;SDS011;10880;50.302;18.736;2022-09-09T16:38:54;1.10;;;1.10;;
21438;SDS011;10880;50.302;18.736;2022-09-09T16:41:23;1.30;;;1.10;;
21438;SDS011;10880;50.302;18.736;2022-09-09T16:46:21;1.20;;;1.10;;
21438;SDS011;10880;50.302;18.736;2022-09-09T16:48:49;1.00;;;1.00;;
21438;SDS011;10880;50.302;18.736;2022-09-09T16:53:43;1.20;;;1.10;;
21438;SDS011;10880;50.302;18.736;2022-09-09T16:56:14;1.00;;;1.00;;
21438;SDS011;10880;50.302;18.736;2022-09-09T16:58:42;1.20;;;1.10;;
21438;SDS011;10880;50.302;18.736;2022-09-09T17:01:11;1.13;;;1.00;;
21438;SDS011;10880;50.302;18.736;2022-09-09T17:03:40;1.10;;;1.00;;
21438;SDS011;10880;50.302;18.736;2022-09-09T17:06:11;1.00;;;0.90;;
21438;SDS011;10880;50.302;18.736;2022-09-09T17:08:38;1.30;;;1.20;;
21438;SDS011;10880;50.302;18.736;2022-09-09T17:11:13;1.07;;;1.07;;
21438;SDS011;10880;50.302;18.736;2022-09-09T17:13:45;1.30;;;1.20;;
21438;SDS011;10880;50.302;18.736;2022-09-09T17:16:14;1.20;;;1.20;;
21438;SDS011;10880;50.302;18.736;2022-09-09T17:18:43;1.23;;;1.13;;
21438;SDS011;10880;50.302;18.736;2022-09-09T17:21:13;2.07;;;1.07;;
21438;SDS011;10880;50.302;18.736;2022-09-09T17:23:42;1.40;;;1.03;;
21438;SDS011;10880;50.302;18.736;2022-09-09T17:26:09;2.03;;;1.20;;
21438;SDS011;10880;50.302;18.736;2022-09-09T17:28:38;1.20;;;1.10;;
21438;SDS011;10880;50.302;18.736;2022-09-09T17:31:06;1.30;;;1.20;;